createdAt,value
2023-05-09T00:00:47.962Z,15.63
2023-05-09T00:01:47.962Z,15.64
2023-05-09T00:02:48.061Z,15.64
2023-05-09T00:03:48.068Z,15.66
2023-05-09T00:04:48.274Z,15.67
2023-05-09T00:05:48.259Z,15.66
2023-05-09T00:06:48.320Z,15.67
2023-05-09T00:07:48.452Z,15.68
2023-05-09T00:08:48.465Z,15.70
2023-05-09T00:09:48.623Z,15.70
2023-05-09T00:10:48.674Z,15.70
2023-05-09T00:11:48.747Z,15.72
2023-05-09T00:12:48.864Z,15.70
2023-05-09T00:13:48.903Z,15.72
2023-05-09T00:14:49.014Z,15.74
2023-05-09T00:15:49.082Z,15.74
2023-05-09T00:16:49.311Z,15.74
2023-05-09T00:17:49.279Z,15.72
2023-05-09T00:18:49.339Z,15.74
2023-05-09T00:19:49.424Z,15.74
2023-05-09T00:20:49.489Z,15.74
2023-05-09T00:21:49.584Z,15.74
2023-05-09T00:22:49.704Z,15.75
2023-05-09T00:23:49.757Z,15.75
2023-05-09T00:24:49.897Z,15.74
2023-05-09T00:25:49.960Z,15.72
2023-05-09T00:26:50.044Z,15.72
2023-05-09T00:27:50.179Z,15.70
2023-05-09T00:28:50.215Z,15.68
2023-05-09T00:48:43.359Z,14.87
2023-05-09T00:49:44.353Z,14.87
2023-05-09T00:50:44.388Z,14.90
2023-05-09T00:51:44.352Z,14.93
2023-05-09T00:52:44.379Z,14.95
2023-05-09T00:53:44.527Z,14.99
2023-05-09T00:54:44.568Z,15.03
2023-05-09T00:55:44.677Z,15.08
2023-05-09T00:56:44.830Z,15.11
2023-05-09T00:57:44.826Z,15.13
2023-05-09T00:58:44.898Z,15.15
2023-05-09T00:59:45.016Z,15.20
2023-05-09T01:00:45.119Z,15.21
2023-05-09T01:01:45.313Z,15.24
2023-05-09T01:02:45.412Z,15.24
2023-05-09T01:03:45.602Z,15.27
2023-05-09T01:04:45.380Z,15.28
2023-05-09T01:05:45.594Z,15.30
2023-05-09T01:06:45.558Z,15.31
2023-05-09T01:07:45.677Z,15.33
2023-05-09T01:08:46.477Z,15.33
2023-05-09T01:09:45.822Z,15.33
2023-05-09T01:10:45.930Z,15.33
2023-05-09T01:11:46.044Z,15.33
2023-05-09T01:12:46.140Z,15.33
2023-05-09T01:13:46.203Z,15.33
2023-05-09T01:14:46.321Z,15.33
2023-05-09T01:15:46.417Z,15.36
2023-05-09T01:16:46.370Z,15.38
2023-05-09T01:17:46.598Z,15.38
2023-05-09T01:18:46.593Z,15.38
2023-05-09T01:19:46.636Z,15.38
2023-05-09T01:20:46.802Z,15.41
2023-05-09T01:21:46.885Z,15.41
2023-05-09T01:22:47.972Z,15.41
2023-05-09T01:23:46.946Z,15.42
2023-05-09T01:24:47.003Z,15.42
2023-05-09T01:25:47.183Z,15.42
2023-05-09T01:26:47.160Z,15.43
2023-05-09T01:27:47.281Z,15.45
2023-05-09T01:28:47.361Z,15.45
2023-05-09T01:29:47.510Z,15.45
2023-05-09T01:30:47.516Z,15.46
2023-05-09T01:31:47.837Z,15.46
2023-05-09T01:32:47.741Z,15.45
2023-05-09T01:33:47.738Z,15.48
2023-05-09T01:34:47.806Z,15.45
2023-05-09T01:35:47.908Z,15.45
2023-05-09T01:36:47.943Z,15.46
2023-05-09T01:37:48.098Z,15.45
2023-05-09T01:38:48.176Z,15.43
2023-05-09T01:39:48.179Z,15.43
2023-05-09T01:40:48.286Z,15.43
2023-05-09T01:41:48.374Z,15.43
2023-05-09T01:42:48.495Z,15.43
2023-05-09T01:43:48.576Z,15.42
2023-05-09T01:44:48.610Z,15.42
2023-05-09T01:45:48.727Z,15.42
2023-05-09T01:46:48.745Z,15.41
2023-05-09T01:47:48.862Z,15.41
2023-05-09T01:48:48.916Z,15.41
2023-05-09T01:49:48.994Z,15.39
2023-05-09T01:50:49.142Z,15.39
2023-05-09T01:51:49.090Z,15.38
2023-05-09T01:52:49.201Z,15.39
2023-05-09T01:53:49.278Z,15.39
2023-05-09T01:54:49.337Z,15.39
2023-05-09T01:55:49.460Z,15.39
2023-05-09T01:56:49.510Z,15.39
2023-05-09T01:57:49.680Z,15.39
2023-05-09T01:58:49.667Z,15.38
2023-05-09T01:59:49.842Z,15.39
2023-05-09T02:00:49.919Z,15.39
2023-05-09T02:01:50.035Z,15.38
2023-05-09T02:02:50.136Z,15.39
2023-05-09T02:03:50.154Z,15.39
2023-05-09T02:04:50.173Z,15.39
2023-05-09T02:05:50.301Z,15.39
2023-05-09T02:06:50.365Z,15.41
2023-05-09T02:07:50.464Z,15.39
2023-05-09T02:08:50.545Z,15.41
2023-05-09T02:09:50.638Z,15.41
2023-05-09T02:10:50.776Z,15.41
2023-05-09T02:11:50.830Z,15.42
2023-05-09T02:12:50.905Z,15.41
2023-05-09T02:13:50.951Z,15.41
2023-05-09T02:14:50.997Z,15.41
2023-05-09T02:15:51.217Z,15.41
2023-05-09T02:16:51.180Z,15.42
2023-05-09T02:17:51.455Z,15.41
2023-05-09T02:18:51.387Z,15.42
2023-05-09T02:19:51.429Z,15.42
2023-05-09T02:20:51.536Z,15.42
2023-05-09T02:21:51.599Z,15.43
2023-05-09T02:22:51.726Z,15.43
2023-05-09T02:23:51.794Z,15.43
2023-05-09T02:24:51.780Z,15.45
2023-05-09T02:25:51.932Z,15.45
2023-05-09T02:26:52.012Z,15.42
2023-05-09T02:27:52.053Z,15.43
2023-05-09T02:28:52.208Z,15.43
2023-05-09T02:29:52.327Z,15.43
2023-05-09T02:30:52.320Z,15.43
2023-05-09T02:31:52.482Z,15.43
2023-05-09T02:32:52.585Z,15.43
2023-05-09T02:33:52.562Z,15.45
2023-05-09T02:34:52.641Z,15.45
2023-05-09T02:35:52.734Z,15.43
2023-05-09T02:36:52.825Z,15.43
2023-05-09T02:37:52.934Z,15.42
2023-05-09T02:38:53.022Z,15.42
2023-05-09T02:39:53.089Z,15.41
2023-05-09T02:40:53.164Z,15.41
2023-05-09T02:41:53.195Z,15.41
2023-05-09T02:42:53.314Z,15.42
2023-05-09T02:43:53.451Z,15.41
2023-05-09T02:44:53.502Z,15.42
2023-05-09T02:45:53.601Z,15.42
2023-05-09T02:46:53.715Z,15.42
2023-05-09T02:47:53.792Z,15.42
2023-05-09T02:48:53.776Z,15.43
2023-05-09T02:49:53.828Z,15.43
2023-05-09T02:50:55.113Z,15.42
2023-05-09T02:51:54.012Z,15.45
2023-05-09T02:52:54.159Z,15.43
2023-05-09T02:53:54.181Z,15.43
2023-05-09T02:54:54.243Z,15.42
2023-05-09T02:55:54.361Z,15.42
2023-05-09T02:56:54.499Z,15.39
2023-05-09T02:58:09.289Z,15.39
2023-05-09T02:58:54.582Z,15.38
2023-05-09T02:59:54.693Z,15.38
2023-05-09T03:02:37.628Z,15.27
2023-05-09T03:03:38.337Z,15.20
2023-05-09T03:04:38.016Z,15.19
2023-05-09T03:05:38.124Z,15.17
2023-05-09T03:06:38.232Z,15.19
2023-05-09T03:07:38.209Z,15.20
2023-05-09T03:08:38.326Z,15.19
2023-05-09T03:09:41.003Z,15.21
2023-05-09T03:10:38.575Z,15.23
2023-05-09T03:11:38.611Z,15.23
2023-05-09T03:12:38.714Z,15.24
2023-05-09T03:13:38.749Z,15.23
2023-05-09T03:14:38.848Z,15.24
2023-05-09T03:15:38.960Z,15.27
2023-05-09T03:16:39.008Z,15.26
2023-05-09T03:17:39.098Z,15.27
2023-05-09T03:18:39.195Z,15.26
2023-05-09T03:19:39.236Z,15.24
2023-05-09T03:20:39.372Z,15.24
2023-05-09T03:21:39.520Z,15.24
2023-05-09T03:22:46.538Z,15.24
2023-05-09T04:17:03.878Z,14.17
2023-05-09T04:18:04.732Z,14.20
2023-05-09T04:19:05.505Z,14.24
2023-05-09T04:20:04.847Z,14.31
2023-05-09T04:21:04.925Z,14.37
2023-05-09T04:22:05.029Z,14.42
2023-05-09T04:23:05.105Z,14.46
2023-05-09T04:24:05.180Z,14.52
2023-05-09T04:25:05.259Z,14.56
2023-05-09T04:26:05.352Z,14.61
2023-05-09T04:27:05.456Z,14.62
2023-05-09T04:28:05.513Z,14.67
2023-05-09T04:29:05.662Z,14.69
2023-05-09T04:30:05.683Z,14.71
2023-05-09T04:31:05.839Z,14.75
2023-05-09T04:32:05.958Z,14.81
2023-05-09T04:33:06.001Z,14.83
2023-05-09T04:34:06.023Z,14.86
2023-05-09T04:35:06.087Z,14.87
2023-05-09T04:36:06.146Z,14.91
2023-05-09T04:37:06.476Z,14.91
2023-05-09T04:38:06.448Z,14.94
2023-05-09T04:39:06.459Z,14.98
2023-05-09T04:40:06.451Z,15.01
2023-05-09T04:41:07.545Z,15.03
2023-05-09T04:42:06.682Z,15.05
2023-05-09T04:43:06.772Z,15.08
2023-05-09T04:44:06.819Z,15.08
2023-05-09T04:45:06.903Z,15.11
2023-05-09T04:46:07.099Z,15.12
2023-05-09T04:47:07.193Z,15.12
2023-05-09T04:48:07.237Z,15.13
2023-05-09T04:49:07.284Z,15.15
2023-05-09T04:50:07.344Z,15.19
2023-05-09T04:51:07.435Z,15.19
2023-05-09T04:52:07.510Z,15.20
2023-05-09T04:53:07.576Z,15.21
2023-05-09T04:54:07.693Z,15.21
2023-05-09T04:55:07.754Z,15.23
2023-05-09T04:56:07.825Z,15.24
2023-05-09T04:57:17.402Z,15.26
2023-05-09T04:58:07.978Z,15.26
2023-05-09T04:59:08.103Z,15.27
2023-05-09T05:00:08.167Z,15.30
2023-05-09T05:01:08.247Z,15.28
2023-05-09T05:02:08.323Z,15.30
2023-05-09T05:03:08.447Z,15.31
2023-05-09T05:04:08.530Z,15.33
2023-05-09T05:05:11.939Z,15.31
2023-05-09T05:06:08.666Z,15.33
2023-05-09T05:07:08.733Z,15.31
2023-05-09T05:08:08.810Z,15.31
2023-05-09T05:09:08.893Z,15.33
2023-05-09T05:10:08.961Z,15.35
2023-05-09T05:11:09.069Z,15.35
2023-05-09T05:12:09.801Z,15.33
2023-05-09T05:13:09.240Z,15.35
2023-05-09T05:14:09.374Z,15.35
2023-05-09T05:15:09.421Z,15.36
2023-05-09T05:16:09.526Z,15.33
2023-05-09T05:17:09.588Z,15.35
2023-05-09T05:18:09.678Z,15.35
2023-05-09T05:19:09.788Z,15.36
2023-05-09T05:20:10.061Z,15.36
2023-05-09T05:21:09.922Z,15.39
2023-05-09T05:22:10.000Z,15.36
2023-05-09T05:23:10.087Z,15.36
2023-05-09T05:24:10.178Z,15.38
2023-05-09T05:25:10.257Z,15.39
2023-05-09T05:26:10.314Z,15.39
2023-05-09T05:27:10.433Z,15.41
2023-05-09T06:29:32.614Z,14.35
2023-05-09T06:30:33.667Z,14.39
2023-05-09T06:31:33.774Z,14.42
2023-05-09T06:32:33.781Z,14.49
2023-05-09T06:33:33.875Z,14.54
2023-05-09T06:34:33.949Z,14.61
2023-05-09T06:35:34.012Z,14.67
2023-05-09T06:36:34.082Z,14.71
2023-05-09T06:37:34.168Z,14.78
2023-05-09T06:38:34.303Z,14.83
2023-05-09T06:39:34.366Z,14.87
2023-05-09T06:40:34.434Z,14.93
2023-05-09T06:41:34.512Z,14.95
2023-05-09T06:42:34.544Z,15.02
2023-05-09T06:43:34.655Z,15.05
2023-05-09T06:44:34.728Z,15.08
2023-05-09T06:45:34.813Z,15.11
2023-05-09T06:46:34.898Z,15.15
2023-05-09T06:47:34.962Z,15.19
2023-05-09T06:48:34.976Z,15.23
2023-05-09T06:49:35.078Z,15.26
2023-05-09T06:50:35.124Z,15.30
2023-05-09T06:51:35.233Z,15.31
2023-05-09T08:18:58.862Z,15.24
2023-05-09T08:19:59.898Z,15.30
2023-05-09T08:21:00.039Z,15.38
2023-05-09T08:21:59.848Z,15.45
2023-05-09T08:22:59.964Z,15.56
2023-05-09T08:24:00.045Z,15.63
2023-05-09T08:25:00.149Z,15.72
2023-05-09T08:26:00.283Z,15.78
2023-05-09T08:27:00.295Z,15.86
2023-05-09T08:28:00.394Z,15.94
2023-05-09T08:29:00.448Z,16.00
2023-05-09T08:30:00.585Z,16.07
2023-05-09T08:31:00.672Z,16.15
2023-05-09T08:32:00.701Z,16.22
2023-05-09T08:33:00.835Z,16.27
2023-05-09T08:34:00.891Z,16.34
2023-05-09T08:35:01.047Z,16.37
2023-05-09T08:36:01.067Z,16.42
2023-05-09T08:37:01.313Z,16.48
2023-05-09T08:38:01.228Z,16.52
2023-05-09T08:39:01.396Z,16.56
2023-05-09T08:51:35.643Z,16.33
2023-05-09T08:52:33.420Z,16.33
2023-05-09T08:57:12.600Z,16.44
2023-05-09T08:58:13.003Z,16.48
2023-05-09T08:59:12.212Z,16.49
2023-05-09T09:00:12.536Z,16.55
2023-05-09T09:08:21.856Z,16.52
2023-05-09T09:09:22.997Z,16.55
2023-05-09T09:10:22.904Z,16.60
2023-05-09T09:23:09.022Z,16.67
2023-05-09T09:24:09.515Z,16.68
2023-05-09T09:25:09.636Z,16.71
2023-05-09T09:26:09.682Z,16.78
2023-05-09T09:27:09.752Z,16.85
2023-05-09T09:28:09.819Z,16.90
2023-05-09T10:29:16.166Z,17.22
2023-05-09T10:30:17.105Z,17.23
2023-05-09T10:31:17.245Z,17.26
2023-05-09T10:32:17.192Z,17.32
2023-05-09T10:33:17.281Z,17.38
2023-05-09T10:34:17.397Z,17.44
2023-05-09T10:35:17.561Z,17.51
2023-05-09T10:36:17.518Z,17.57
2023-05-09T10:37:17.592Z,17.64
2023-05-09T10:38:18.553Z,17.70
2023-05-09T10:39:17.749Z,17.76
2023-05-09T10:40:17.825Z,17.81
2023-05-09T10:41:17.851Z,17.87
2023-05-09T10:42:18.002Z,17.94
2023-05-09T10:43:18.090Z,17.99
2023-05-09T10:44:18.100Z,18.04
2023-05-09T10:45:18.395Z,18.09
2023-05-09T10:46:18.327Z,18.12
2023-05-09T10:47:18.401Z,18.18
2023-05-09T10:48:18.419Z,18.22
2023-05-09T10:49:18.487Z,18.27
2023-05-09T10:50:18.538Z,18.31
2023-05-09T10:51:18.627Z,18.37
2023-05-09T10:52:18.727Z,18.40
2023-05-09T10:53:18.787Z,18.43
2023-05-09T10:54:18.914Z,18.46
2023-05-09T10:55:18.983Z,18.46
2023-05-09T10:56:19.062Z,18.47
2023-05-09T10:57:19.154Z,18.50
2023-05-09T10:58:19.486Z,18.55
2023-05-09T10:59:19.334Z,18.58
2023-05-09T11:00:19.389Z,18.59
2023-05-09T11:01:19.501Z,18.62
2023-05-09T11:02:19.563Z,18.67
2023-05-09T11:03:19.779Z,18.70
2023-05-09T11:04:19.758Z,18.74
2023-05-09T11:05:19.872Z,18.77
2023-05-09T11:06:19.922Z,18.83
2023-05-09T11:07:19.974Z,18.84
2023-05-09T11:08:20.089Z,18.90
2023-05-09T11:09:20.156Z,18.91
2023-05-09T11:10:20.218Z,18.94
2023-05-09T11:11:20.342Z,18.97
2023-05-09T11:12:20.353Z,18.99
2023-05-09T11:13:20.484Z,19.05
2023-05-09T11:14:20.580Z,19.05
2023-05-09T11:15:20.652Z,19.06
2023-05-09T11:16:20.762Z,19.10
2023-05-09T11:17:20.845Z,19.10
2023-05-09T11:18:20.925Z,19.13
2023-05-09T11:19:21.030Z,19.14
2023-05-09T11:20:21.098Z,19.15
2023-05-09T11:21:21.166Z,19.17
2023-05-09T11:22:21.240Z,19.21
2023-05-09T11:23:21.332Z,19.24
2023-05-09T11:24:21.472Z,19.29
2023-05-09T11:25:21.484Z,19.32
2023-05-09T11:26:21.579Z,19.35
2023-05-09T11:27:21.666Z,19.38
2023-05-09T11:28:21.765Z,19.40
2023-05-09T11:29:21.872Z,19.40
2023-05-09T11:30:21.954Z,19.46
2023-05-09T11:31:22.043Z,19.46
2023-05-09T11:32:22.184Z,19.47
2023-05-09T11:33:22.176Z,19.48
2023-05-09T11:34:22.335Z,19.48
2023-05-09T11:35:22.383Z,19.48
2023-05-09T11:36:22.508Z,19.50
2023-05-09T11:37:37.455Z,19.53
2023-05-09T11:38:22.652Z,19.53
2023-05-09T11:39:22.731Z,19.55
2023-05-09T11:40:22.786Z,19.57
2023-05-09T11:41:22.846Z,19.58
2023-05-09T11:42:22.932Z,19.60
2023-05-09T11:43:23.001Z,19.60
2023-05-09T11:44:23.094Z,19.61
2023-05-09T11:45:23.177Z,19.61
2023-05-09T11:46:23.377Z,19.61
2023-05-09T11:47:23.326Z,19.63
2023-05-09T11:48:23.376Z,19.63
2023-05-09T11:49:23.496Z,19.63
2023-05-09T11:50:23.594Z,19.65
2023-05-09T11:51:23.654Z,19.65
2023-05-09T11:52:23.715Z,19.65
2023-05-09T11:53:23.904Z,19.66
2023-05-09T11:54:23.959Z,19.66
2023-05-09T11:55:24.028Z,19.63
2023-05-09T11:56:24.042Z,19.66
2023-05-09T11:57:24.151Z,19.68
2023-05-09T11:58:24.284Z,19.68
2023-05-09T11:59:24.301Z,19.68
2023-05-09T12:00:24.410Z,19.73
2023-05-09T12:01:24.483Z,19.73
2023-05-09T12:02:24.580Z,19.76
2023-05-09T12:03:25.341Z,19.79
2023-05-09T12:05:54.279Z,19.83
2023-05-09T12:06:55.272Z,19.80
2023-05-09T12:07:55.395Z,19.79
2023-05-09T12:08:55.423Z,19.79
2023-05-09T12:09:55.533Z,19.80
2023-05-09T12:10:55.577Z,19.86
2023-05-09T12:11:55.646Z,19.87
2023-05-09T12:12:55.928Z,19.90
2023-05-09T12:13:55.955Z,19.91
2023-05-09T12:14:55.952Z,19.93
2023-05-09T12:15:56.069Z,19.94
2023-05-09T12:16:56.145Z,19.93
2023-05-09T12:17:56.271Z,19.94
2023-05-09T12:18:56.211Z,19.95
2023-05-09T12:19:56.351Z,19.95
2023-05-09T12:20:56.372Z,19.97
2023-05-09T12:21:56.460Z,20.00
2023-05-09T12:22:56.543Z,20.02
2023-05-09T12:23:56.604Z,20.02
2023-05-09T12:24:56.831Z,20.02
2023-05-09T12:25:56.866Z,20.03
2023-05-09T12:26:57.919Z,20.02
2023-05-09T12:27:56.960Z,20.03
2023-05-09T12:28:57.129Z,20.06
2023-05-09T12:29:57.966Z,20.06
2023-05-09T12:30:57.336Z,20.06
2023-05-09T12:31:57.304Z,20.06
2023-05-09T12:32:57.509Z,20.03
2023-05-09T12:33:57.449Z,20.03
2023-05-09T12:34:57.693Z,20.05
2023-05-09T12:35:57.629Z,20.05
2023-05-09T12:36:58.137Z,20.06
2023-05-09T12:37:57.744Z,20.06
2023-05-09T12:38:58.060Z,20.09
2023-05-09T12:39:56.943Z,20.09
2023-05-09T12:40:58.069Z,20.12
2023-05-09T12:42:01.864Z,20.15
2023-05-09T12:42:58.207Z,20.16
2023-05-09T12:43:58.340Z,20.16
2023-05-09T12:44:58.409Z,20.16
2023-05-09T12:45:58.452Z,20.15
2023-05-09T12:46:58.851Z,20.15
2023-05-09T12:47:59.414Z,20.16
2023-05-09T12:48:58.806Z,20.16
2023-05-09T12:49:58.788Z,20.18
2023-05-09T12:50:59.715Z,20.18
2023-05-09T12:51:57.954Z,20.20
2023-05-09T12:53:03.250Z,20.21
2023-05-09T12:53:59.150Z,20.20
2023-05-09T12:54:58.168Z,20.21
2023-05-09T12:55:59.351Z,20.24
2023-05-09T12:56:59.334Z,20.25
2023-05-09T12:57:59.497Z,20.25
2023-05-09T12:59:00.354Z,20.25
2023-05-09T12:59:58.574Z,20.27
2023-05-09T13:00:59.713Z,20.27
2023-05-09T13:01:59.776Z,20.30
2023-05-09T13:02:59.887Z,20.30
2023-05-09T13:13:44.438Z,19.93
2023-05-09T13:14:45.573Z,19.94
2023-05-09T13:15:45.575Z,19.94
2023-05-09T13:16:46.186Z,19.97
2023-05-09T13:20:10.816Z,20.02
2023-05-09T13:21:11.784Z,20.05
2023-05-09T13:22:12.468Z,20.06
2023-05-09T13:23:11.925Z,20.10
2023-05-09T13:24:15.221Z,20.13
2023-05-09T13:25:12.259Z,20.18
2023-05-09T13:26:12.132Z,20.21
2023-05-09T13:27:12.300Z,20.23
2023-05-09T13:28:12.357Z,20.25
2023-05-09T13:29:12.429Z,20.28
2023-05-09T13:30:12.812Z,20.33
2023-05-09T13:31:12.560Z,20.38
2023-05-09T13:32:12.629Z,20.42
2023-05-09T13:33:24.515Z,20.46
2023-05-09T13:34:12.761Z,20.50
2023-05-09T13:35:12.862Z,20.56
2023-05-09T13:36:13.006Z,20.58
2023-05-09T13:37:13.161Z,20.62
2023-05-09T13:38:13.127Z,20.65
2023-05-09T13:39:13.242Z,20.69
2023-05-09T13:40:13.606Z,20.72
2023-05-09T13:41:13.408Z,20.74
2023-05-09T13:42:13.627Z,20.76
2023-05-09T13:43:13.539Z,20.79
2023-05-09T13:44:13.664Z,20.81
2023-05-09T13:45:13.882Z,20.81
2023-05-09T13:46:14.036Z,20.80
2023-05-09T13:47:13.955Z,20.79
2023-05-09T13:48:15.585Z,20.76
2023-05-09T13:49:14.069Z,20.74
2023-05-09T13:50:14.402Z,20.72
2023-05-09T13:51:14.261Z,20.69
2023-05-09T13:52:14.319Z,20.66
2023-05-09T13:53:14.454Z,20.65
2023-05-09T13:54:14.504Z,20.65
2023-05-09T13:55:14.623Z,20.66
2023-05-09T13:56:23.750Z,20.65
2023-05-09T13:57:14.769Z,20.66
2023-05-09T13:58:14.843Z,20.69
2023-05-09T13:59:14.923Z,20.69
2023-05-09T14:00:15.883Z,20.71
2023-05-09T14:01:15.141Z,20.72
2023-05-09T14:02:15.181Z,20.74
2023-05-09T14:03:15.448Z,20.76
2023-05-09T14:04:15.822Z,20.76
2023-05-09T14:05:24.814Z,20.77
2023-05-09T14:06:15.602Z,20.76
2023-05-09T14:07:15.643Z,20.76
2023-05-09T14:08:15.628Z,20.77
2023-05-09T14:09:15.764Z,20.80
2023-05-09T14:10:15.768Z,20.81
2023-05-09T14:11:15.886Z,20.81
2023-05-09T14:12:15.943Z,20.81
2023-05-09T14:32:15.606Z,20.05
2023-05-09T14:33:16.618Z,20.03
2023-05-09T14:34:16.719Z,20.02
2023-05-09T14:35:16.706Z,20.05
2023-05-09T14:36:16.765Z,20.06
2023-05-09T14:37:16.985Z,20.09
2023-05-09T14:38:16.953Z,20.10
2023-05-09T14:39:16.963Z,20.13
2023-05-09T14:40:17.272Z,20.15
2023-05-09T14:41:17.618Z,20.15
2023-05-09T14:42:17.329Z,20.15
2023-05-09T14:43:17.429Z,20.16
2023-05-09T14:44:17.421Z,20.18
2023-05-09T14:45:17.529Z,20.21
2023-05-09T14:46:17.662Z,20.25
2023-05-09T14:47:17.669Z,20.27
2023-05-09T14:48:17.812Z,20.31
2023-05-09T14:49:17.800Z,20.35
2023-05-09T14:50:18.054Z,20.35
2023-05-09T14:51:18.163Z,20.39
2023-05-09T14:52:18.149Z,20.42
2023-05-09T14:53:18.251Z,20.47
2023-05-09T14:54:18.282Z,20.51
2023-05-09T14:55:18.346Z,20.54
2023-05-09T14:56:18.429Z,20.56
2023-05-09T14:57:18.583Z,20.59
2023-05-09T15:06:36.067Z,20.27
2023-05-09T15:07:37.098Z,20.27
2023-05-09T15:08:37.139Z,20.27
2023-05-09T15:09:37.233Z,20.30
2023-05-09T15:10:37.292Z,20.31
2023-05-09T15:11:47.838Z,20.38
2023-05-09T15:12:37.463Z,20.38
2023-05-09T15:13:37.574Z,20.41
2023-05-09T15:14:37.647Z,20.43
2023-05-09T15:15:37.692Z,20.43
2023-05-09T15:16:37.792Z,20.46
2023-05-09T15:17:37.859Z,20.47
2023-05-09T15:18:38.017Z,20.49
2023-05-09T15:19:38.048Z,20.51
2023-05-09T15:20:38.129Z,20.53
2023-05-09T16:54:44.159Z,19.14
2023-05-09T16:55:45.114Z,19.15
2023-05-09T17:08:06.805Z,19.05
2023-05-09T17:12:43.189Z,18.92
2023-05-09T17:13:42.580Z,18.92
2023-05-09T17:14:42.556Z,18.98
2023-05-09T17:15:42.626Z,19.01
2023-05-09T17:16:42.688Z,19.10
2023-05-09T17:17:42.821Z,19.14
2023-05-09T17:18:42.994Z,19.20
2023-05-09T17:19:42.910Z,19.24
2023-05-09T17:20:43.007Z,19.28
2023-05-09T17:21:43.191Z,19.32
2023-05-09T17:22:43.114Z,19.36
2023-05-09T17:23:43.212Z,19.39
2023-05-09T17:24:43.241Z,19.40
2023-05-09T17:25:43.363Z,19.42
2023-05-09T17:26:43.442Z,19.47
2023-05-09T17:27:43.526Z,19.50
2023-05-09T17:28:43.589Z,19.51
2023-05-09T17:29:43.711Z,19.53
2023-05-09T17:30:43.734Z,19.55
2023-05-09T17:31:44.066Z,19.57
2023-05-09T17:32:43.965Z,19.57
2023-05-09T17:33:43.980Z,19.58
2023-05-09T17:34:44.081Z,19.61
2023-05-09T17:35:44.131Z,19.63
2023-05-09T17:36:44.204Z,19.63
2023-05-09T17:37:44.292Z,19.65
2023-05-09T17:38:44.356Z,19.65
2023-05-09T17:44:14.873Z,19.50
2023-05-09T17:45:15.253Z,19.48
2023-05-09T17:46:15.330Z,19.48
2023-05-09T17:47:15.535Z,19.48
2023-05-09T17:53:21.344Z,19.17
2023-05-09T17:54:22.197Z,19.11
2023-05-09T17:55:22.293Z,19.08
2023-05-09T17:56:22.414Z,19.01
2023-05-09T17:57:22.450Z,18.95
2023-05-09T17:58:22.514Z,18.87
2023-05-09T17:59:22.585Z,18.84
2023-05-09T18:00:22.637Z,18.76
2023-05-09T18:01:22.759Z,18.70
2023-05-09T18:02:22.878Z,18.65
2023-05-09T18:03:23.014Z,18.58
2023-05-09T18:04:22.991Z,18.52
2023-05-09T18:05:24.170Z,18.44
2023-05-09T18:06:23.149Z,18.42
2023-05-09T18:07:23.215Z,18.37
2023-05-09T18:08:23.273Z,18.33
2023-05-09T18:09:23.395Z,18.28
2023-05-09T18:10:23.411Z,18.24
2023-05-09T18:11:24.267Z,18.19
2023-05-09T18:12:23.545Z,18.17
2023-05-09T18:13:42.146Z,18.12
2023-05-09T18:14:23.885Z,18.07
2023-05-09T18:17:25.571Z,17.97
2023-05-09T18:23:53.707Z,17.71
2023-05-09T18:24:47.779Z,17.67
2023-05-09T18:25:47.812Z,17.64
2023-05-09T18:26:47.916Z,17.64
2023-05-09T18:29:01.485Z,17.66
2023-05-09T18:30:03.693Z,17.63
2023-05-09T18:31:02.591Z,17.64
2023-05-09T18:32:02.703Z,17.62
2023-05-09T18:33:02.901Z,17.63
2023-05-09T18:37:31.656Z,17.53
2023-05-09T18:38:31.938Z,17.53
2023-05-09T18:39:32.050Z,17.51
2023-05-09T18:40:32.196Z,17.53
2023-05-09T18:41:32.250Z,17.55
2023-05-09T18:42:32.435Z,17.57
2023-05-09T18:43:32.510Z,17.63
2023-05-09T18:44:32.468Z,17.62
2023-05-09T18:45:32.613Z,17.62
2023-05-09T18:46:34.029Z,17.62
2023-05-09T18:47:32.749Z,17.57
2023-05-09T18:48:33.145Z,17.53
2023-05-09T18:49:33.115Z,17.48
2023-05-09T18:50:38.381Z,17.44
2023-05-09T18:51:33.126Z,17.36
2023-05-09T18:52:35.783Z,17.29
2023-05-09T18:53:33.209Z,17.25
2023-05-09T18:54:33.353Z,17.22
2023-05-09T18:55:33.616Z,17.18
2023-05-09T18:56:33.821Z,17.14
2023-05-09T18:57:33.857Z,17.11
2023-05-09T18:58:37.159Z,17.08
2023-05-09T18:59:39.170Z,17.04
2023-05-09T19:00:33.858Z,17.03
2023-05-09T19:01:34.065Z,16.99
2023-05-09T19:02:34.087Z,16.96
2023-05-09T19:03:34.135Z,16.95
2023-05-09T19:04:34.253Z,16.90
2023-05-09T19:05:34.977Z,16.92
2023-05-09T19:06:34.368Z,16.90
2023-05-09T19:07:34.434Z,16.86
2023-05-09T19:08:34.553Z,16.80
2023-05-09T19:09:35.600Z,16.77
2023-05-09T19:10:34.710Z,16.77
2023-05-09T19:11:35.156Z,16.73
2023-05-09T19:12:34.966Z,16.70
2023-05-09T19:13:35.190Z,16.70
2023-05-09T19:14:36.094Z,16.68
2023-05-09T19:15:35.155Z,16.65
2023-05-09T19:16:35.295Z,16.63
2023-05-09T19:17:35.389Z,16.62
2023-05-09T19:18:36.055Z,16.60
2023-05-09T19:19:38.031Z,16.59
2023-05-09T19:20:37.817Z,16.56
2023-05-09T19:21:36.209Z,16.55
2023-05-09T19:22:46.475Z,16.53
2023-05-09T19:23:35.978Z,16.52
2023-05-09T19:24:46.359Z,16.52
2023-05-09T19:25:36.136Z,16.50
2023-05-09T19:26:38.280Z,16.50
2023-05-09T19:27:36.371Z,16.50
2023-05-09T19:28:36.543Z,16.50
2023-05-09T19:35:14.373Z,16.23
2023-05-09T19:36:15.435Z,16.16
2023-05-09T19:37:15.542Z,16.14
2023-05-09T19:38:14.808Z,16.11
2023-05-09T19:39:14.776Z,16.09
2023-05-09T19:40:15.120Z,16.12
2023-05-09T19:41:14.981Z,16.12
2023-05-09T19:42:15.149Z,16.12
2023-05-09T19:43:15.191Z,16.12
2023-05-09T19:44:15.218Z,16.11
2023-05-09T19:45:15.450Z,16.11
2023-05-09T19:46:15.447Z,16.12
2023-05-09T19:47:15.530Z,16.12
2023-05-09T19:48:16.138Z,16.14
2023-05-09T19:49:17.153Z,16.14
2023-05-09T19:50:15.997Z,16.15
2023-05-09T19:51:16.667Z,16.16
2023-05-09T19:52:15.861Z,16.15
2023-05-09T19:53:15.923Z,16.16
2023-05-09T19:54:15.992Z,16.15
2023-05-09T20:07:28.890Z,15.63
2023-05-09T20:08:29.907Z,15.64
2023-05-09T20:09:32.053Z,15.64
2023-05-09T20:10:30.098Z,15.67
2023-05-09T20:11:30.189Z,15.72
2023-05-09T20:12:30.579Z,15.72
2023-05-09T20:13:30.367Z,15.76
2023-05-09T20:14:30.469Z,15.79
2023-05-09T20:15:30.546Z,15.82
2023-05-09T20:16:30.698Z,15.84
2023-05-09T20:17:30.703Z,15.86
2023-05-09T20:18:31.432Z,15.89
2023-05-09T20:19:31.100Z,15.94
2023-05-09T20:20:30.966Z,15.96
2023-05-09T20:21:31.017Z,16.00
2023-05-09T20:22:31.112Z,16.06
2023-05-09T20:23:31.159Z,16.06
2023-05-09T20:24:31.273Z,16.11
2023-05-09T20:25:31.340Z,16.12
2023-05-09T20:26:31.460Z,16.14
2023-05-09T20:27:32.438Z,16.15
2023-05-09T20:28:31.585Z,16.16
2023-05-09T20:29:31.696Z,16.16
2023-05-09T20:30:31.759Z,16.18
2023-05-09T20:31:31.872Z,16.16
2023-05-09T20:32:32.004Z,16.16
2023-05-09T20:33:31.976Z,16.16
2023-05-09T20:34:32.053Z,16.15
2023-05-09T20:35:32.145Z,16.16
2023-05-09T20:36:32.209Z,16.16
2023-05-09T20:37:32.281Z,16.16
2023-05-09T20:38:32.399Z,16.18
2023-05-09T20:39:32.530Z,16.20
2023-05-09T20:40:32.540Z,16.20
2023-05-09T20:41:32.607Z,16.22
2023-05-09T20:42:32.699Z,16.25
2023-05-09T20:43:32.754Z,16.25
2023-05-09T20:44:32.873Z,16.30
2023-05-09T20:45:33.007Z,16.33
2023-05-09T20:46:33.035Z,16.37
2023-05-09T20:47:33.130Z,16.38
2023-05-09T20:48:33.226Z,16.38
2023-05-09T20:49:33.304Z,16.41
2023-05-09T20:50:33.439Z,16.41
2023-05-09T20:51:33.491Z,16.42
2023-05-09T20:52:33.546Z,16.44
2023-05-09T20:53:33.598Z,16.44
2023-05-09T20:54:33.755Z,16.45
2023-05-09T20:55:33.797Z,16.45
2023-05-09T20:56:33.865Z,16.49
2023-05-09T20:57:33.937Z,16.50
2023-05-09T20:58:34.025Z,16.53
2023-05-09T20:59:34.102Z,16.55
2023-05-09T21:00:34.186Z,16.59
2023-05-09T21:01:34.285Z,16.59
2023-05-09T21:02:34.440Z,16.60
2023-05-09T21:03:34.403Z,16.62
2023-05-09T21:04:34.483Z,16.63
2023-05-09T21:05:34.533Z,16.65
2023-05-09T21:06:34.648Z,16.68
2023-05-09T21:07:34.720Z,16.70
2023-05-09T21:08:34.843Z,16.71
2023-05-09T21:09:34.912Z,16.71
2023-05-09T21:10:34.935Z,16.74
2023-05-09T21:11:35.055Z,16.75
2023-05-09T21:12:35.125Z,16.75
2023-05-09T21:13:35.196Z,16.75
2023-05-09T21:14:35.296Z,16.75
2023-05-09T21:15:35.383Z,16.75
2023-05-09T21:16:35.520Z,16.75
2023-05-09T21:17:35.573Z,16.75
2023-05-09T21:18:35.654Z,16.75